Terminal Aerodrome Forecast
Issued by NWS

Home | Current Version | Previous Version | Text Only | Print | Product List | Glossary On
Versions: 1 2 3 4 5 6 7 8 9 10 11 12 13 14 15 16 17
829
FTUS46 KLOX 291720
TAFPMD
TAF
KPMD 291720Z 2918/3018 VRB03KT P6SM SCT200
     FM292000 24010KT P6SM SCT200
     FM292200 24015G25KT P6SM SCT200
     FM300200 24010KT P6SM SCT200
     FM300700 21007KT P6SM SCT200
     FM301500 VRB03KT P6SM SCT200=

USA.gov is the U.S. government's official web portal to all federal, state and local government web resources and services.